createdAt,value
2018-04-14T00:01:48.354Z,49.70
2018-04-14T00:04:15.857Z,49.90
2018-04-14T00:06:43.349Z,49.80
2018-04-14T00:09:10.863Z,49.80
2018-04-14T00:11:38.362Z,49.90
2018-04-14T00:14:06.630Z,50.80
2018-04-14T00:16:34.902Z,51.30
2018-04-14T00:19:03.165Z,52.30
2018-04-14T00:21:30.661Z,52.20
2018-04-14T00:23:58.235Z,52.40
2018-04-14T00:26:25.738Z,52.40
2018-04-14T00:28:54.737Z,52.30
2018-04-14T00:31:23.009Z,52.30
2018-04-14T00:33:50.529Z,52.70
2018-04-14T00:36:18.026Z,52.80
2018-04-14T00:38:45.522Z,52.60
2018-04-14T00:41:13.034Z,52.80
2018-04-14T00:43:40.529Z,52.50
2018-04-14T00:46:08.797Z,52.40
2018-04-14T00:48:37.058Z,52.40
2018-04-14T00:51:04.553Z,52.30
2018-04-14T00:53:43.702Z,52.50
2018-04-14T00:56:11.218Z,52.70
2018-04-14T00:58:39.477Z,52.50
2018-04-14T01:01:06.988Z,52.50
2018-04-14T01:03:34.505Z,52.50
2018-04-14T01:06:02.016Z,52.80
2018-04-14T01:08:30.385Z,52.70
2018-04-14T01:10:57.906Z,52.80
2018-04-14T01:13:26.169Z,52.80
2018-04-14T01:15:53.674Z,52.80
2018-04-14T01:18:21.178Z,52.80
2018-04-14T01:20:48.687Z,52.90
2018-04-14T01:23:16.202Z,52.90
2018-04-14T01:25:43.729Z,52.60
2018-04-14T01:28:11.244Z,52.80
2018-04-14T01:30:39.525Z,52.70
2018-04-14T01:33:07.790Z,52.70
2018-04-14T01:35:36.054Z,52.80
2018-04-14T01:38:03.574Z,52.80
2018-04-14T01:40:31.077Z,52.80
2018-04-14T01:42:58.589Z,52.60
2018-04-14T01:45:26.082Z,52.70
2018-04-14T01:47:53.584Z,52.70
2018-04-14T01:50:21.107Z,52.90
2018-04-14T01:52:48.607Z,52.90
2018-04-14T01:55:16.118Z,53.10
2018-04-14T01:57:45.124Z,53.00
2018-04-14T02:00:13.405Z,53.10
2018-04-14T02:02:41.682Z,53.20
2018-04-14T02:05:09.958Z,53.40
2018-04-14T02:07:38.230Z,53.60
2018-04-14T02:10:06.502Z,53.70
2018-04-14T02:12:34.766Z,54.10
2018-04-14T02:15:02.286Z,53.50
2018-04-14T02:17:29.793Z,53.40
2018-04-14T02:19:57.285Z,53.40
2018-04-14T02:22:24.794Z,54.20
2018-04-14T02:24:53.062Z,54.00
2018-04-14T02:27:20.581Z,54.00
2018-04-14T02:29:48.653Z,54.00
2018-04-14T02:32:16.157Z,54.20
2018-04-14T02:34:43.672Z,54.10
2018-04-14T02:37:11.198Z,54.20
2018-04-14T02:39:39.483Z,54.40
2018-04-14T02:42:07.755Z,54.10
2018-04-14T02:44:36.042Z,54.10
2018-04-14T02:47:04.307Z,54.00
2018-04-14T02:49:32.579Z,53.90
2018-04-14T02:52:00.859Z,53.80
2018-04-14T02:54:29.121Z,53.80
2018-04-14T02:56:57.410Z,53.80
2018-04-14T02:59:24.927Z,53.70
2018-04-14T03:01:52.430Z,53.90
2018-04-14T03:04:20.698Z,54.10
2018-04-14T03:06:48.984Z,54.30
2018-04-14T03:09:17.267Z,54.40
2018-04-14T03:11:45.529Z,54.50
2018-04-14T03:14:13.797Z,54.50
2018-04-14T03:16:41.305Z,54.50
2018-04-14T03:19:08.814Z,55.20
2018-04-14T03:21:37.082Z,55.20
2018-04-14T03:24:04.570Z,55.20
2018-04-14T03:26:32.846Z,55.00
2018-04-14T03:29:01.114Z,55.20
2018-04-14T03:31:29.382Z,55.30
2018-04-14T03:33:57.653Z,55.20
2018-04-14T03:36:25.158Z,55.10
2018-04-14T03:38:52.659Z,55.20
2018-04-14T03:41:20.178Z,55.50
2018-04-14T03:43:47.693Z,55.70
2018-04-14T03:46:15.961Z,56.50
2018-04-14T03:48:43.471Z,55.80
2018-04-14T03:51:10.977Z,55.70
2018-04-14T03:53:38.499Z,55.60
2018-04-14T03:56:06.010Z,55.80
2018-04-14T03:58:34.289Z,56.00
2018-04-14T04:01:02.551Z,56.10
2018-04-14T04:03:30.054Z,56.10
2018-04-14T04:05:57.573Z,56.10
2018-04-14T04:08:25.841Z,56.40
2018-04-14T04:10:53.370Z,56.40
2018-04-14T04:13:20.869Z,56.50
2018-04-14T04:15:49.190Z,56.60
2018-04-14T04:18:29.557Z,57.20
2018-04-14T04:21:08.917Z,57.10
2018-04-14T04:23:49.153Z,56.80
2018-04-14T04:26:16.655Z,56.90
2018-04-14T04:28:44.180Z,56.80
2018-04-14T04:31:11.685Z,57.10
2018-04-14T04:33:39.954Z,57.30
2018-04-14T04:36:08.217Z,57.40
2018-04-14T04:38:35.713Z,57.30
2018-04-14T04:41:03.226Z,57.30
2018-04-14T04:43:30.734Z,57.90
2018-04-14T04:45:58.244Z,57.90
2018-04-14T04:48:25.765Z,57.80
2018-04-14T04:50:53.277Z,57.90
2018-04-14T04:53:21.542Z,58.10
2018-04-14T04:55:49.057Z,58.10
2018-04-14T04:58:16.570Z,57.90
2018-04-14T05:00:44.838Z,58.10
2018-04-14T05:03:12.365Z,58.00
2018-04-14T05:05:39.879Z,58.40
2018-04-14T05:08:08.145Z,58.60
2018-04-14T05:10:36.426Z,58.60
2018-04-14T05:13:04.694Z,58.60
2018-04-14T05:15:32.958Z,59.40
2018-04-14T05:18:01.237Z,58.80
2018-04-14T05:20:28.752Z,58.90
2018-04-14T05:22:56.249Z,58.60
2018-04-14T05:25:23.785Z,58.60
2018-04-14T05:27:51.282Z,58.50
2018-04-14T05:30:19.567Z,59.00
2018-04-14T05:32:47.854Z,58.90
2018-04-14T05:35:15.360Z,58.80
2018-04-14T05:37:42.878Z,59.60
2018-04-14T05:40:10.378Z,59.90
2018-04-14T05:42:37.889Z,59.80
2018-04-14T05:45:06.153Z,60.30
2018-04-14T05:47:34.423Z,60.70
2018-04-14T05:50:02.687Z,60.60
2018-04-14T05:52:30.206Z,60.50
2018-04-14T05:54:57.723Z,60.30
2018-04-14T05:57:26.001Z,60.10
2018-04-14T05:59:54.261Z,59.90
2018-04-14T06:02:21.778Z,59.90
2018-04-14T06:04:49.290Z,59.80
2018-04-14T06:07:17.575Z,59.10
2018-04-14T06:09:45.846Z,58.60
2018-04-14T06:12:14.113Z,59.50
2018-04-14T06:14:41.633Z,58.90
2018-04-14T06:17:09.130Z,60.60
2018-04-14T06:19:36.645Z,61.70
2018-04-14T06:22:04.178Z,59.90
2018-04-14T06:24:31.684Z,58.80
2018-04-14T06:26:59.178Z,57.50
2018-04-14T06:29:27.457Z,57.60
2018-04-14T06:31:54.977Z,57.60
2018-04-14T06:34:22.470Z,56.60
2018-04-14T06:36:50.734Z,56.60
2018-04-14T06:39:19.746Z,57.20
2018-04-14T06:41:47.258Z,57.20
2018-04-14T06:44:14.761Z,56.80
2018-04-14T06:46:43.027Z,56.30
2018-04-14T06:49:11.297Z,55.50
2018-04-14T06:51:38.796Z,55.30
2018-04-14T06:54:06.359Z,55.50
2018-04-14T06:56:33.853Z,55.10
2018-04-14T06:59:01.366Z,55.10
2018-04-14T07:01:28.859Z,55.20
2018-04-14T07:03:56.354Z,55.10
2018-04-14T07:06:24.617Z,54.20
2018-04-14T07:08:52.111Z,54.20
2018-04-14T07:11:19.616Z,53.90
2018-04-14T07:13:47.134Z,54.30
2018-04-14T07:16:14.630Z,53.90
2018-04-14T07:18:42.125Z,53.10
2018-04-14T07:21:10.386Z,53.30
2018-04-14T07:23:38.749Z,53.50
2018-04-14T07:26:06.242Z,53.40
2018-04-14T07:28:34.509Z,53.30
2018-04-14T07:31:02.782Z,52.90
2018-04-14T07:33:31.061Z,52.40
2018-04-14T07:35:59.345Z,51.30
2018-04-14T07:38:27.601Z,51.10
2018-04-14T07:40:55.892Z,51.90
2018-04-14T07:43:24.154Z,52.50
2018-04-14T07:45:51.677Z,52.50
2018-04-14T07:48:19.191Z,52.30
2018-04-14T07:50:47.456Z,51.70
2018-04-14T07:53:14.953Z,51.60
2018-04-14T07:55:42.462Z,51.30
2018-04-14T07:58:09.958Z,51.30
2018-04-14T08:00:37.453Z,50.70
2018-04-14T08:03:04.958Z,50.60
2018-04-14T08:05:33.234Z,52.10
2018-04-14T08:08:01.489Z,51.40
2018-04-14T08:10:28.993Z,51.40
2018-04-14T08:12:56.501Z,50.10
2018-04-14T08:15:23.998Z,49.70
2018-04-14T08:17:51.495Z,51.50
2018-04-14T08:20:19.003Z,51.30
2018-04-14T08:22:46.516Z,50.90
2018-04-14T08:25:14.076Z,50.50
2018-04-14T08:27:41.594Z,49.70
2018-04-14T08:30:09.138Z,48.50
2018-04-14T08:32:36.614Z,50.30
2018-04-14T08:35:04.114Z,50.10
2018-04-14T08:37:31.657Z,48.70
2018-04-14T08:39:59.909Z,49.50
2018-04-14T08:42:27.426Z,49.40
2018-04-14T08:44:54.938Z,49.60
2018-04-14T08:47:22.491Z,48.10
2018-04-14T08:49:50.738Z,48.90
2018-04-14T08:52:20.590Z,49.50
2018-04-14T08:54:48.092Z,49.50
2018-04-14T08:57:15.625Z,49.40
2018-04-14T08:59:43.121Z,48.70
2018-04-14T09:02:10.618Z,48.30
2018-04-14T09:04:41.209Z,46.90
2018-04-14T09:07:09.782Z,47.10
2018-04-14T09:09:37.296Z,47.10
2018-04-14T09:12:04.821Z,47.10
2018-04-14T09:14:33.085Z,46.10
2018-04-14T09:17:01.346Z,43.80
2018-04-14T09:19:30.374Z,46.10
2018-04-14T09:21:58.638Z,46.10
2018-04-14T09:24:26.913Z,46.50
2018-04-14T09:26:55.199Z,46.80
2018-04-14T09:29:23.504Z,46.40
2018-04-14T09:31:51.035Z,46.50
2018-04-14T09:34:19.297Z,46.10
2018-04-14T09:36:47.557Z,46.50
2018-04-14T09:39:15.078Z,46.50
2018-04-14T09:41:42.574Z,47.30
2018-04-14T09:44:10.093Z,46.20
2018-04-14T09:46:37.610Z,45.40
2018-04-14T09:49:05.873Z,45.30
2018-04-14T09:51:34.154Z,45.60
2018-04-14T09:54:02.438Z,45.10
2018-04-14T09:56:30.743Z,45.40
2018-04-14T09:58:58.965Z,44.90
2018-04-14T10:01:27.287Z,44.90
2018-04-14T10:03:58.078Z,44.70
2018-04-14T10:06:25.585Z,44.60
2018-04-14T10:08:53.844Z,44.40
2018-04-14T10:11:22.114Z,43.20
2018-04-14T10:13:49.622Z,43.10
2018-04-14T10:16:17.173Z,44.70
2018-04-14T10:18:45.450Z,44.40
2018-04-14T10:21:12.967Z,44.40
2018-04-14T10:23:41.288Z,44.00
2018-04-14T10:26:08.794Z,44.00
2018-04-14T10:28:36.289Z,41.00
2018-04-14T10:31:03.782Z,41.10
2018-04-14T10:33:31.281Z,40.30
2018-04-14T10:35:58.883Z,40.60
2018-04-14T10:38:26.405Z,38.40
2018-04-14T10:40:54.669Z,38.50
2018-04-14T10:43:22.169Z,38.40
2018-04-14T10:45:49.669Z,39.90
2018-04-14T10:48:17.180Z,38.70
2018-04-14T10:50:44.693Z,38.10
2018-04-14T10:53:13.089Z,38.50
2018-04-14T10:55:41.345Z,38.70
2018-04-14T10:58:09.684Z,37.20
2018-04-14T11:00:37.179Z,37.20
2018-04-14T11:03:04.669Z,36.50
2018-04-14T11:05:32.940Z,36.20
2018-04-14T11:08:01.216Z,37.20
2018-04-14T11:10:29.485Z,35.80
2018-04-14T11:12:56.976Z,35.80
2018-04-14T11:15:24.481Z,35.40
2018-04-14T11:17:51.982Z,34.80
2018-04-14T11:20:20.246Z,34.10
2018-04-14T11:22:48.513Z,34.30
2018-04-14T11:25:16.009Z,34.20
2018-04-14T11:27:43.513Z,35.90
2018-04-14T11:30:11.017Z,34.80
2018-04-14T11:32:38.521Z,32.30
2018-04-14T11:35:06.048Z,31.20
2018-04-14T11:37:33.542Z,34.80
2018-04-14T11:40:01.038Z,33.00
2018-04-14T11:42:29.300Z,30.80
2018-04-14T11:44:56.800Z,30.80
2018-04-14T11:47:24.324Z,32.70
2018-04-14T11:49:51.829Z,31.70
2018-04-14T11:52:19.377Z,29.80
2018-04-14T11:54:46.872Z,32.30
2018-04-14T11:57:14.378Z,30.00
2018-04-14T11:59:41.877Z,30.10
2018-04-14T12:02:09.386Z,30.40
2018-04-14T12:04:36.905Z,30.90
2018-04-14T12:07:04.414Z,32.70
2018-04-14T12:09:31.922Z,32.80
2018-04-14T12:11:59.426Z,31.60
2018-04-14T12:14:26.938Z,32.50
2018-04-14T12:16:54.438Z,32.60
2018-04-14T12:19:22.726Z,30.80
2018-04-14T12:21:50.231Z,30.80
2018-04-14T12:24:17.724Z,30.20
2018-04-14T12:26:45.993Z,29.70
2018-04-14T12:29:14.253Z,29.80
2018-04-14T12:31:41.763Z,29.70
2018-04-14T12:34:09.262Z,29.30
2018-04-14T12:36:36.761Z,29.30
2018-04-14T12:39:05.052Z,30.40
2018-04-14T12:41:32.578Z,30.40
2018-04-14T12:44:00.858Z,28.60
2018-04-14T12:46:29.158Z,27.80
2018-04-14T12:48:56.658Z,27.80
2018-04-14T12:51:24.938Z,28.50
2018-04-14T12:53:52.450Z,28.50
2018-04-14T12:56:19.987Z,27.30
2018-04-14T12:58:48.254Z,27.00
2018-04-14T13:01:15.756Z,27.00
2018-04-14T13:03:43.270Z,28.50
2018-04-14T13:06:10.783Z,29.10
2018-04-14T13:08:38.283Z,28.80
2018-04-14T13:11:05.789Z,27.40
2018-04-14T13:13:33.284Z,27.00
2018-04-14T13:16:00.807Z,25.20
2018-04-14T13:18:28.329Z,27.10
2018-04-14T13:20:56.598Z,27.00
2018-04-14T13:23:24.095Z,27.00
2018-04-14T13:25:51.633Z,27.00
2018-04-14T13:28:19.886Z,25.80
2018-04-14T13:30:47.381Z,25.80
2018-04-14T13:33:14.875Z,26.90
2018-04-14T13:35:42.369Z,25.80
2018-04-14T13:38:10.688Z,27.50
2018-04-14T13:40:38.213Z,27.50
2018-04-14T13:43:06.523Z,27.70
2018-04-14T13:45:34.018Z,27.60
2018-04-14T13:48:01.509Z,28.10
2018-04-14T13:50:29.781Z,28.50
2018-04-14T13:52:58.082Z,28.00
2018-04-14T13:55:25.577Z,28.00
2018-04-14T13:57:53.074Z,28.20
2018-04-14T14:00:21.348Z,29.40
2018-04-14T14:02:49.626Z,30.00
2018-04-14T14:05:17.941Z,29.60
2018-04-14T14:07:45.448Z,29.60
2018-04-14T14:10:12.938Z,29.00
2018-04-14T14:12:40.449Z,28.90
2018-04-14T14:15:07.958Z,29.50
2018-04-14T14:17:35.462Z,29.20
2018-04-14T14:20:02.966Z,29.50
2018-04-14T14:22:31.226Z,28.70
2018-04-14T14:24:58.758Z,28.80
2018-04-14T14:27:26.252Z,28.80
2018-04-14T14:29:54.531Z,28.40
2018-04-14T14:32:22.805Z,27.80
2018-04-14T14:34:51.062Z,27.00
2018-04-14T14:37:18.575Z,26.90
2018-04-14T14:39:46.089Z,27.60
2018-04-14T14:42:14.361Z,26.60
2018-04-14T14:44:41.866Z,26.60
2018-04-14T14:47:09.382Z,26.60
2018-04-14T14:49:36.879Z,25.50
2018-04-14T14:52:04.386Z,26.30
2018-04-14T14:54:31.882Z,26.30
2018-04-14T14:56:59.390Z,26.30
2018-04-14T14:59:26.921Z,23.90
2018-04-14T15:01:54.422Z,23.70
2018-04-14T15:04:21.918Z,23.30
2018-04-14T15:06:49.433Z,22.90
2018-04-14T15:09:16.958Z,22.00
2018-04-14T15:11:44.458Z,20.70
2018-04-14T15:14:11.945Z,22.60
2018-04-14T15:16:40.214Z,22.90
2018-04-14T15:19:08.494Z,23.30
2018-04-14T15:21:36.751Z,23.90
2018-04-14T15:24:05.030Z,24.40
2018-04-14T15:26:32.533Z,24.40
2018-04-14T15:29:00.045Z,24.80
2018-04-14T15:31:27.543Z,24.40
2018-04-14T15:33:55.036Z,22.60
2018-04-14T15:36:22.537Z,22.70
2018-04-14T15:38:50.797Z,22.70
2018-04-14T15:41:19.073Z,22.80
2018-04-14T15:43:47.356Z,23.00
2018-04-14T15:46:15.626Z,22.90
2018-04-14T15:48:43.905Z,22.50
2018-04-14T15:51:12.168Z,23.70
2018-04-14T15:53:39.690Z,23.70
2018-04-14T15:56:07.194Z,23.50
2018-04-14T15:58:34.690Z,23.20
2018-04-14T16:01:02.191Z,23.00
2018-04-14T16:03:29.694Z,22.30
2018-04-14T16:05:57.198Z,22.10
2018-04-14T16:08:24.702Z,21.70
2018-04-14T16:10:53.004Z,22.10
2018-04-14T16:13:20.510Z,22.10
2018-04-14T16:15:48.019Z,22.20
2018-04-14T16:18:16.005Z,22.10
2018-04-14T16:20:43.510Z,22.00
2018-04-14T16:23:11.786Z,23.30
2018-04-14T16:25:40.047Z,23.90
2018-04-14T16:28:07.551Z,23.90
2018-04-14T16:30:35.062Z,23.50
2018-04-14T16:33:02.562Z,24.70
2018-04-14T16:35:30.054Z,25.70
2018-04-14T16:37:57.570Z,26.50
2018-04-14T16:40:25.871Z,27.70
2018-04-14T16:42:53.392Z,27.70
2018-04-14T16:45:22.208Z,28.80
2018-04-14T16:47:49.710Z,28.80
2018-04-14T16:50:17.205Z,29.20
2018-04-14T16:52:45.475Z,30.00
2018-04-14T16:55:13.000Z,30.00
2018-04-14T16:57:40.514Z,30.40
2018-04-14T17:00:08.026Z,31.00
2018-04-14T17:02:35.517Z,31.10
2018-04-14T17:05:03.774Z,31.80
2018-04-14T17:07:31.279Z,31.70
2018-04-14T17:09:58.778Z,32.40
2018-04-14T17:12:26.292Z,32.20
2018-04-14T17:14:53.793Z,32.40
2018-04-14T17:17:21.310Z,32.10
2018-04-14T17:19:48.809Z,32.60
2018-04-14T17:22:16.310Z,32.60
2018-04-14T17:24:44.574Z,33.70
2018-04-14T17:27:12.854Z,33.70
2018-04-14T17:29:41.120Z,33.90
2018-04-14T17:32:08.628Z,34.00
2018-04-14T17:34:36.118Z,34.20
2018-04-14T17:37:04.381Z,34.10
2018-04-14T17:39:31.889Z,34.10
2018-04-14T17:42:00.176Z,33.80
2018-04-14T17:44:27.686Z,33.80
2018-04-14T17:46:56.693Z,34.30
2018-04-14T17:49:24.193Z,34.30
2018-04-14T17:51:51.685Z,34.40
2018-04-14T17:54:19.198Z,34.80
2018-04-14T17:56:46.704Z,34.60
2018-04-14T17:59:14.198Z,34.70
2018-04-14T18:01:42.476Z,35.10
2018-04-14T18:04:10.762Z,35.20
2018-04-14T18:06:39.021Z,35.50
2018-04-14T18:09:07.294Z,35.00
2018-04-14T18:11:34.809Z,35.40
2018-04-14T18:14:02.301Z,35.10
2018-04-14T18:16:30.566Z,35.70
2018-04-14T18:18:58.065Z,35.80
2018-04-14T18:21:26.337Z,36.50
2018-04-14T18:23:54.589Z,36.90
2018-04-14T18:26:22.867Z,37.20
2018-04-14T18:28:50.361Z,37.20
2018-04-14T18:31:18.033Z,37.40
2018-04-14T18:33:45.540Z,37.40
2018-04-14T18:36:13.104Z,37.80
2018-04-14T18:38:40.602Z,38.20
2018-04-14T18:41:08.126Z,38.80
2018-04-14T18:43:36.418Z,39.30
2018-04-14T18:46:04.685Z,39.40
2018-04-14T18:48:33.007Z,39.60
2018-04-14T18:51:00.518Z,39.60
2018-04-14T18:53:28.029Z,40.00
2018-04-14T18:55:55.541Z,40.70
2018-04-14T18:58:23.814Z,40.70
2018-04-14T19:00:52.131Z,40.90
2018-04-14T19:03:19.626Z,41.40
2018-04-14T19:05:47.119Z,41.10
2018-04-14T19:08:15.383Z,41.90
2018-04-14T19:10:43.658Z,42.20
2018-04-14T19:13:11.148Z,42.10
2018-04-14T19:15:38.642Z,42.20
2018-04-14T19:18:06.149Z,42.50
2018-04-14T19:20:34.411Z,42.60
2018-04-14T19:23:01.924Z,42.50
2018-04-14T19:25:29.439Z,42.80
2018-04-14T19:27:57.710Z,43.30
2018-04-14T19:30:26.000Z,43.70
2018-04-14T19:32:53.516Z,43.70
2018-04-14T19:35:21.024Z,43.80
2018-04-14T19:37:48.614Z,44.10
2018-04-14T19:40:16.839Z,44.80
2018-04-14T19:42:45.109Z,44.90
2018-04-14T19:45:13.382Z,44.80
2018-04-14T19:47:41.670Z,45.20
2018-04-14T19:50:09.942Z,45.40
2018-04-14T19:52:38.214Z,45.70
2018-04-14T19:55:06.478Z,45.70
2018-04-14T19:57:33.986Z,45.70
2018-04-14T20:00:01.494Z,45.80
2018-04-14T20:02:29.003Z,45.90
2018-04-14T20:04:56.529Z,46.10
2018-04-14T20:07:24.818Z,46.50
2018-04-14T20:09:52.321Z,46.50
2018-04-14T20:12:19.861Z,46.60
2018-04-14T20:14:47.350Z,47.00
2018-04-14T20:17:16.361Z,47.50
2018-04-14T20:19:43.902Z,47.50
2018-04-14T20:22:11.371Z,47.70
2018-04-14T20:24:38.865Z,47.80
2018-04-14T20:27:07.137Z,47.60
2018-04-14T20:29:35.441Z,47.90
2018-04-14T20:32:02.943Z,47.90
2018-04-14T20:34:30.458Z,48.10
2018-04-14T20:36:57.974Z,48.40
2018-04-14T20:39:25.494Z,48.60
2018-04-14T20:41:52.998Z,48.30
2018-04-14T20:44:21.259Z,49.20
2018-04-14T20:46:48.754Z,49.20
2018-04-14T20:49:16.259Z,49.20
2018-04-14T20:51:43.769Z,49.40
2018-04-14T20:54:11.278Z,49.60
2018-04-14T20:56:38.773Z,49.60
2018-04-14T20:59:06.289Z,49.80
2018-04-14T21:01:33.786Z,49.90
2018-04-14T21:04:02.069Z,50.90
2018-04-14T21:06:30.338Z,50.30
2018-04-14T21:08:58.597Z,50.30
2018-04-14T21:11:26.108Z,50.30
2018-04-14T21:13:53.606Z,50.20
2018-04-14T21:16:21.108Z,50.40
2018-04-14T21:18:48.619Z,50.40
2018-04-14T21:21:16.134Z,50.70
2018-04-14T21:23:43.637Z,50.60
2018-04-14T21:26:11.133Z,50.70
2018-04-14T21:28:38.630Z,50.60
2018-04-14T21:31:06.130Z,50.60
2018-04-14T21:33:33.650Z,50.70
2018-04-14T21:36:01.149Z,51.30
2018-04-14T21:38:29.414Z,51.60
2018-04-14T21:40:58.419Z,51.90
2018-04-14T21:43:26.698Z,52.30
2018-04-14T21:45:54.965Z,52.00
2018-04-14T21:48:23.245Z,51.60
2018-04-14T21:50:51.518Z,51.40
2018-04-14T21:53:19.021Z,51.40
2018-04-14T21:55:46.529Z,51.40
2018-04-14T21:58:14.067Z,51.40
2018-04-14T22:00:41.588Z,51.30
2018-04-14T22:03:09.086Z,51.30
2018-04-14T22:05:36.601Z,51.40
2018-04-14T22:08:04.109Z,51.70
2018-04-14T22:10:31.607Z,51.60
2018-04-14T22:12:59.886Z,51.90
2018-04-14T22:15:27.406Z,51.90
2018-04-14T22:17:55.677Z,52.30
2018-04-14T22:20:23.179Z,51.70
2018-04-14T22:22:50.691Z,51.60
2018-04-14T22:25:18.202Z,51.30
2018-04-14T22:27:45.702Z,51.30
2018-04-14T22:30:13.205Z,51.20
2018-04-14T22:32:41.485Z,51.40
2018-04-14T22:35:09.746Z,51.70
2018-04-14T22:37:38.068Z,51.60
2018-04-14T22:40:05.553Z,51.60
2018-04-14T22:42:33.072Z,51.90
2018-04-14T22:45:00.599Z,51.90
2018-04-14T22:47:28.102Z,52.20
2018-04-14T22:49:55.617Z,52.30
2018-04-14T22:52:23.882Z,52.30
2018-04-14T22:54:51.394Z,52.70
2018-04-14T22:57:18.885Z,52.90
2018-04-14T22:59:46.393Z,53.30
2018-04-14T23:02:13.914Z,53.50
2018-04-14T23:04:41.431Z,53.80
2018-04-14T23:07:08.925Z,54.00
2018-04-14T23:09:36.445Z,54.00
2018-04-14T23:12:03.969Z,54.00
2018-04-14T23:14:32.251Z,53.80
2018-04-14T23:17:00.518Z,53.40
2018-04-14T23:19:28.796Z,53.40
2018-04-14T23:21:57.071Z,53.80
2018-04-14T23:24:25.341Z,54.20
2018-04-14T23:26:53.621Z,54.40
2018-04-14T23:29:21.890Z,55.10
2018-04-14T23:31:49.386Z,54.40
2018-04-14T23:34:16.901Z,55.20
2018-04-14T23:36:44.398Z,54.30
2018-04-14T23:39:11.906Z,54.60
2018-04-14T23:41:39.403Z,54.70
2018-04-14T23:44:07.682Z,56.00
2018-04-14T23:46:36.174Z,55.70
2018-04-14T23:49:03.673Z,55.60
2018-04-14T23:51:31.175Z,55.70
2018-04-14T23:53:59.445Z,55.90
2018-04-14T23:56:27.714Z,55.90
2018-04-14T23:58:55.213Z,55.80
